sensor_id;sensor_type;location;lat;lon;timestamp;temperature;humidity
8928;DHT22;4499;48.304;11.902;2023-01-26T00:02:25;-1.10;99.90
8928;DHT22;4499;48.304;11.902;2023-01-26T00:04:57;-1.10;99.90
8928;DHT22;4499;48.304;11.902;2023-01-26T00:07:27;-1.10;99.90
8928;DHT22;4499;48.304;11.902;2023-01-26T00:09:55;-1.10;99.90
8928;DHT22;4499;48.304;11.902;2023-01-26T00:12:24;-1.00;99.90
8928;DHT22;4499;48.304;11.902;2023-01-26T00:14:52;-1.10;99.90
8928;DHT22;4499;48.304;11.902;2023-01-26T00:17:20;-1.10;99.90
8928;DHT22;4499;48.304;11.902;2023-01-26T00:19:56;-1.10;99.90
8928;DHT22;4499;48.304;11.902;2023-01-26T00:22:25;-1.10;99.90
8928;DHT22;4499;48.304;11.902;2023-01-26T00:24:53;-1.00;99.90
8928;DHT22;4499;48.304;11.902;2023-01-26T00:27:21;-1.10;99.90
8928;DHT22;4499;48.304;11.902;2023-01-26T00:29:51;-1.10;99.90
8928;DHT22;4499;48.304;11.902;2023-01-26T00:32:19;-1.00;99.90
8928;DHT22;4499;48.304;11.902;2023-01-26T00:34:47;-1.00;99.90
8928;DHT22;4499;48.304;11.902;2023-01-26T00:37:15;-1.00;99.90
8928;DHT22;4499;48.304;11.902;2023-01-26T00:39:43;-1.10;99.90
8928;DHT22;4499;48.304;11.902;2023-01-26T00:42:11;-1.10;99.90
8928;DHT22;4499;48.304;11.902;2023-01-26T00:44:42;-1.10;99.90
8928;DHT22;4499;48.304;11.902;2023-01-26T00:47:13;-1.10;99.90
8928;DHT22;4499;48.304;11.902;2023-01-26T00:49:41;-1.10;99.90
8928;DHT22;4499;48.304;11.902;2023-01-26T00:52:10;-1.00;99.90
8928;DHT22;4499;48.304;11.902;2023-01-26T00:54:38;-1.00;99.90
8928;DHT22;4499;48.304;11.902;2023-01-26T00:57:06;-1.10;99.90
8928;DHT22;4499;48.304;11.902;2023-01-26T00:59:34;-1.00;99.90
8928;DHT22;4499;48.304;11.902;2023-01-26T01:02:03;-1.10;99.90
8928;DHT22;4499;48.304;11.902;2023-01-26T01:04:33;-1.10;99.90
8928;DHT22;4499;48.304;11.902;2023-01-26T01:07:01;-1.10;99.90
8928;DHT22;4499;48.304;11.902;2023-01-26T01:09:29;-1.10;99.90
8928;DHT22;4499;48.304;11.902;2023-01-26T01:11:57;-1.10;99.90
8928;DHT22;4499;48.304;11.902;2023-01-26T01:14:25;-1.10;99.90
8928;DHT22;4499;48.304;11.902;2023-01-26T01:16:53;-1.10;99.90
8928;DHT22;4499;48.304;11.902;2023-01-26T01:19:23;-1.20;99.90
8928;DHT22;4499;48.304;11.902;2023-01-26T01:21:56;-1.10;99.90
8928;DHT22;4499;48.304;11.902;2023-01-26T01:24:25;-1.10;99.90
8928;DHT22;4499;48.304;11.902;2023-01-26T01:26:53;-1.10;99.90
8928;DHT22;4499;48.304;11.902;2023-01-26T01:29:21;-1.10;99.90
8928;DHT22;4499;48.304;11.902;2023-01-26T01:31:52;-1.10;99.90
8928;DHT22;4499;48.304;11.902;2023-01-26T01:34:21;-1.20;99.90
8928;DHT22;4499;48.304;11.902;2023-01-26T01:36:49;-1.10;99.90
8928;DHT22;4499;48.304;11.902;2023-01-26T01:39:18;-1.10;99.90
8928;DHT22;4499;48.304;11.902;2023-01-26T01:41:46;-1.10;99.90
8928;DHT22;4499;48.304;11.902;2023-01-26T01:44:16;-1.10;99.90
8928;DHT22;4499;48.304;11.902;2023-01-26T01:46:48;-1.10;99.90
8928;DHT22;4499;48.304;11.902;2023-01-26T01:49:22;-1.10;99.90
8928;DHT22;4499;48.304;11.902;2023-01-26T01:51:55;-1.10;99.90
8928;DHT22;4499;48.304;11.902;2023-01-26T01:54:29;-1.10;99.90
8928;DHT22;4499;48.304;11.902;2023-01-26T01:57:03;-1.10;99.90
8928;DHT22;4499;48.304;11.902;2023-01-26T01:59:42;-1.10;99.90
8928;DHT22;4499;48.304;11.902;2023-01-26T02:02:14;-1.20;99.90
8928;DHT22;4499;48.304;11.902;2023-01-26T02:04:43;-1.20;99.90
8928;DHT22;4499;48.304;11.902;2023-01-26T02:07:11;-1.30;99.90
8928;DHT22;4499;48.304;11.902;2023-01-26T02:09:41;-1.30;99.90
8928;DHT22;4499;48.304;11.902;2023-01-26T02:12:30;-1.30;99.90
8928;DHT22;4499;48.304;11.902;2023-01-26T02:14:59;-1.20;99.90
8928;DHT22;4499;48.304;11.902;2023-01-26T02:17:28;-1.20;99.90
8928;DHT22;4499;48.304;11.902;2023-01-26T02:20:02;-1.20;99.90
8928;DHT22;4499;48.304;11.902;2023-01-26T02:22:40;-1.20;99.90
8928;DHT22;4499;48.304;11.902;2023-01-26T02:25:18;-1.20;99.90
8928;DHT22;4499;48.304;11.902;2023-01-26T02:27:53;-1.20;99.90
8928;DHT22;4499;48.304;11.902;2023-01-26T02:30:26;-1.20;99.90
8928;DHT22;4499;48.304;11.902;2023-01-26T02:32:56;-1.30;99.90
8928;DHT22;4499;48.304;11.902;2023-01-26T02:35:25;-1.30;99.90
8928;DHT22;4499;48.304;11.902;2023-01-26T02:37:53;-1.30;99.90
8928;DHT22;4499;48.304;11.902;2023-01-26T02:40:29;-1.20;99.90
8928;DHT22;4499;48.304;11.902;2023-01-26T02:43:01;-1.30;99.90
8928;DHT22;4499;48.304;11.902;2023-01-26T02:45:29;-1.30;99.90
8928;DHT22;4499;48.304;11.902;2023-01-26T02:47:58;-1.30;99.90
8928;DHT22;4499;48.304;11.902;2023-01-26T02:50:30;-1.20;99.90
8928;DHT22;4499;48.304;11.902;2023-01-26T02:52:57;-1.30;99.90
8928;DHT22;4499;48.304;11.902;2023-01-26T02:55:26;-1.20;99.90
8928;DHT22;4499;48.304;11.902;2023-01-26T02:57:55;-1.20;99.90
8928;DHT22;4499;48.304;11.902;2023-01-26T03:00:27;-1.20;99.90
8928;DHT22;4499;48.304;11.902;2023-01-26T03:02:57;-1.20;99.90
8928;DHT22;4499;48.304;11.902;2023-01-26T03:05:26;-1.20;99.90
8928;DHT22;4499;48.304;11.902;2023-01-26T03:07:55;-1.20;99.90
8928;DHT22;4499;48.304;11.902;2023-01-26T03:10:23;-1.30;99.90
8928;DHT22;4499;48.304;11.902;2023-01-26T03:12:52;-1.20;99.90
8928;DHT22;4499;48.304;11.902;2023-01-26T03:15:20;-1.30;99.90
8928;DHT22;4499;48.304;11.902;2023-01-26T03:18:09;-1.30;99.90
8928;DHT22;4499;48.304;11.902;2023-01-26T03:21:11;-1.20;99.90
8928;DHT22;4499;48.304;11.902;2023-01-26T03:23:57;-1.30;99.90
8928;DHT22;4499;48.304;11.902;2023-01-26T03:26:57;-1.30;99.90
8928;DHT22;4499;48.304;11.902;2023-01-26T03:29:43;-1.30;99.90
8928;DHT22;4499;48.304;11.902;2023-01-26T03:32:12;-1.30;99.90
8928;DHT22;4499;48.304;11.902;2023-01-26T03:34:41;-1.40;99.90
8928;DHT22;4499;48.304;11.902;2023-01-26T03:37:10;-1.40;99.90
8928;DHT22;4499;48.304;11.902;2023-01-26T03:39:38;-1.50;99.90
8928;DHT22;4499;48.304;11.902;2023-01-26T03:42:24;-1.50;99.90
8928;DHT22;4499;48.304;11.902;2023-01-26T03:45:10;-1.60;99.90
8928;DHT22;4499;48.304;11.902;2023-01-26T03:48:03;-1.50;99.90
8928;DHT22;4499;48.304;11.902;2023-01-26T03:50:50;-1.60;99.90
8928;DHT22;4499;48.304;11.902;2023-01-26T03:53:36;-1.60;99.90
8928;DHT22;4499;48.304;11.902;2023-01-26T03:56:22;-1.60;99.90
8928;DHT22;4499;48.304;11.902;2023-01-26T03:58:53;-1.50;99.90
8928;DHT22;4499;48.304;11.902;2023-01-26T04:01:24;-1.40;99.90
8928;DHT22;4499;48.304;11.902;2023-01-26T04:03:55;-1.40;99.90
8928;DHT22;4499;48.304;11.902;2023-01-26T04:06:44;-1.40;99.90
8928;DHT22;4499;48.304;11.902;2023-01-26T04:09:30;-1.30;99.90
8928;DHT22;4499;48.304;11.902;2023-01-26T04:11:59;-1.30;99.90
8928;DHT22;4499;48.304;11.902;2023-01-26T04:14:28;-1.30;99.90
8928;DHT22;4499;48.304;11.902;2023-01-26T04:17:16;-1.20;99.90
8928;DHT22;4499;48.304;11.902;2023-01-26T04:20:03;-1.20;99.90
8928;DHT22;4499;48.304;11.902;2023-01-26T04:22:50;-1.20;99.90
8928;DHT22;4499;48.304;11.902;2023-01-26T04:25:20;-1.20;99.90
8928;DHT22;4499;48.304;11.902;2023-01-26T04:27:48;-1.20;99.90
8928;DHT22;4499;48.304;11.902;2023-01-26T04:30:17;-1.30;99.90
8928;DHT22;4499;48.304;11.902;2023-01-26T04:32:45;-1.30;99.90
8928;DHT22;4499;48.304;11.902;2023-01-26T04:35:13;-1.20;99.90
8928;DHT22;4499;48.304;11.902;2023-01-26T04:37:42;-1.20;99.90
8928;DHT22;4499;48.304;11.902;2023-01-26T04:40:12;-1.30;99.90
8928;DHT22;4499;48.304;11.902;2023-01-26T04:42:40;-1.30;99.90
8928;DHT22;4499;48.304;11.902;2023-01-26T04:45:11;-1.30;99.90
8928;DHT22;4499;48.304;11.902;2023-01-26T04:47:39;-1.30;99.90
8928;DHT22;4499;48.304;11.902;2023-01-26T04:50:09;-1.30;99.90
8928;DHT22;4499;48.304;11.902;2023-01-26T04:52:37;-1.40;99.90
8928;DHT22;4499;48.304;11.902;2023-01-26T04:55:06;-1.30;99.90
8928;DHT22;4499;48.304;11.902;2023-01-26T04:57:35;-1.20;99.90
8928;DHT22;4499;48.304;11.902;2023-01-26T05:00:04;-1.30;99.90
8928;DHT22;4499;48.304;11.902;2023-01-26T05:02:36;-1.30;99.90
8928;DHT22;4499;48.304;11.902;2023-01-26T05:05:06;-1.30;99.90
8928;DHT22;4499;48.304;11.902;2023-01-26T05:07:34;-1.30;99.90
8928;DHT22;4499;48.304;11.902;2023-01-26T05:10:03;-1.30;99.90
8928;DHT22;4499;48.304;11.902;2023-01-26T05:12:31;-1.30;99.90
8928;DHT22;4499;48.304;11.902;2023-01-26T05:15:06;-1.30;99.90
8928;DHT22;4499;48.304;11.902;2023-01-26T05:17:34;-1.20;99.90
8928;DHT22;4499;48.304;11.902;2023-01-26T05:20:03;-1.20;99.90
8928;DHT22;4499;48.304;11.902;2023-01-26T05:22:31;-1.20;99.90
8928;DHT22;4499;48.304;11.902;2023-01-26T05:24:59;-1.20;99.90
8928;DHT22;4499;48.304;11.902;2023-01-26T05:27:28;-1.30;99.90
8928;DHT22;4499;48.304;11.902;2023-01-26T05:29:56;-1.20;99.90
8928;DHT22;4499;48.304;11.902;2023-01-26T05:32:27;-1.20;99.90
8928;DHT22;4499;48.304;11.902;2023-01-26T05:34:56;-1.30;99.90
8928;DHT22;4499;48.304;11.902;2023-01-26T05:37:24;-1.30;99.90
8928;DHT22;4499;48.304;11.902;2023-01-26T05:39:54;-1.30;99.90
8928;DHT22;4499;48.304;11.902;2023-01-26T05:42:23;-1.20;99.90
8928;DHT22;4499;48.304;11.902;2023-01-26T05:44:51;-1.20;99.90
8928;DHT22;4499;48.304;11.902;2023-01-26T05:47:19;-1.30;99.90
8928;DHT22;4499;48.304;11.902;2023-01-26T05:49:48;-1.30;99.90
8928;DHT22;4499;48.304;11.902;2023-01-26T05:52:18;-1.20;99.90
8928;DHT22;4499;48.304;11.902;2023-01-26T05:54:46;-1.20;99.90
8928;DHT22;4499;48.304;11.902;2023-01-26T05:57:14;-1.30;99.90
8928;DHT22;4499;48.304;11.902;2023-01-26T05:59:43;-1.30;99.90
8928;DHT22;4499;48.304;11.902;2023-01-26T06:02:16;-1.30;99.90
8928;DHT22;4499;48.304;11.902;2023-01-26T06:04:45;-1.30;99.90
8928;DHT22;4499;48.304;11.902;2023-01-26T06:07:14;-1.30;99.90
8928;DHT22;4499;48.304;11.902;2023-01-26T06:09:43;-1.30;99.90
8928;DHT22;4499;48.304;11.902;2023-01-26T06:12:13;-1.30;99.90
8928;DHT22;4499;48.304;11.902;2023-01-26T06:14:42;-1.30;99.90
8928;DHT22;4499;48.304;11.902;2023-01-26T06:17:14;-1.20;99.90
8928;DHT22;4499;48.304;11.902;2023-01-26T06:19:43;-1.30;99.90
8928;DHT22;4499;48.304;11.902;2023-01-26T06:22:13;-1.20;99.90
8928;DHT22;4499;48.304;11.902;2023-01-26T06:24:41;-1.20;99.90
8928;DHT22;4499;48.304;11.902;2023-01-26T06:27:12;-1.30;99.90
8928;DHT22;4499;48.304;11.902;2023-01-26T06:29:40;-1.20;99.90
8928;DHT22;4499;48.304;11.902;2023-01-26T06:32:10;-1.20;99.90
8928;DHT22;4499;48.304;11.902;2023-01-26T06:34:39;-1.20;99.90
8928;DHT22;4499;48.304;11.902;2023-01-26T06:37:09;-1.30;99.90
8928;DHT22;4499;48.304;11.902;2023-01-26T06:39:38;-1.30;99.90
8928;DHT22;4499;48.304;11.902;2023-01-26T06:42:07;-1.30;99.90
8928;DHT22;4499;48.304;11.902;2023-01-26T06:44:35;-1.20;99.90
8928;DHT22;4499;48.304;11.902;2023-01-26T06:47:04;-1.20;99.90
8928;DHT22;4499;48.304;11.902;2023-01-26T06:49:34;-1.30;99.90
8928;DHT22;4499;48.304;11.902;2023-01-26T06:52:03;-1.20;99.90
8928;DHT22;4499;48.304;11.902;2023-01-26T06:54:40;-1.20;99.90
8928;DHT22;4499;48.304;11.902;2023-01-26T06:57:08;-1.20;99.90
8928;DHT22;4499;48.304;11.902;2023-01-26T06:59:36;-1.20;99.90
8928;DHT22;4499;48.304;11.902;2023-01-26T07:02:05;-1.20;99.90
8928;DHT22;4499;48.304;11.902;2023-01-26T07:04:37;-1.20;99.90
8928;DHT22;4499;48.304;11.902;2023-01-26T07:07:05;-1.10;99.90
8928;DHT22;4499;48.304;11.902;2023-01-26T07:09:33;-1.10;99.90
8928;DHT22;4499;48.304;11.902;2023-01-26T07:12:04;-1.10;99.90
8928;DHT22;4499;48.304;11.902;2023-01-26T07:14:32;-1.20;99.90
8928;DHT22;4499;48.304;11.902;2023-01-26T07:17:01;-1.30;99.90
8928;DHT22;4499;48.304;11.902;2023-01-26T07:19:29;-1.20;99.90
8928;DHT22;4499;48.304;11.902;2023-01-26T07:21:59;-1.30;99.90
8928;DHT22;4499;48.304;11.902;2023-01-26T07:24:28;-1.30;99.90
8928;DHT22;4499;48.304;11.902;2023-01-26T07:26:56;-1.20;99.90
8928;DHT22;4499;48.304;11.902;2023-01-26T07:29:26;-1.20;99.90
8928;DHT22;4499;48.304;11.902;2023-01-26T07:31:54;-1.20;99.90
8928;DHT22;4499;48.304;11.902;2023-01-26T07:34:22;-1.20;99.90
8928;DHT22;4499;48.304;11.902;2023-01-26T07:36:51;-1.10;99.90
8928;DHT22;4499;48.304;11.902;2023-01-26T07:39:22;-1.10;99.90
8928;DHT22;4499;48.304;11.902;2023-01-26T07:41:52;-1.10;99.90
8928;DHT22;4499;48.304;11.902;2023-01-26T07:44:20;-1.10;99.90
8928;DHT22;4499;48.304;11.902;2023-01-26T07:46:50;-1.10;99.90
8928;DHT22;4499;48.304;11.902;2023-01-26T07:49:19;-1.10;99.90
8928;DHT22;4499;48.304;11.902;2023-01-26T07:51:47;-1.10;99.90
8928;DHT22;4499;48.304;11.902;2023-01-26T07:54:18;-1.20;99.90
8928;DHT22;4499;48.304;11.902;2023-01-26T07:56:50;-1.10;99.90
8928;DHT22;4499;48.304;11.902;2023-01-26T07:59:20;-1.10;99.90
8928;DHT22;4499;48.304;11.902;2023-01-26T08:01:49;-1.10;99.90
8928;DHT22;4499;48.304;11.902;2023-01-26T08:04:18;-1.10;99.90
8928;DHT22;4499;48.304;11.902;2023-01-26T08:06:46;-1.10;99.90
8928;DHT22;4499;48.304;11.902;2023-01-26T08:09:16;-1.10;99.90
8928;DHT22;4499;48.304;11.902;2023-01-26T08:11:44;-1.10;99.90
8928;DHT22;4499;48.304;11.902;2023-01-26T08:14:12;-1.00;99.90
8928;DHT22;4499;48.304;11.902;2023-01-26T08:16:40;-1.10;99.90
8928;DHT22;4499;48.304;11.902;2023-01-26T08:19:09;-1.10;99.90
8928;DHT22;4499;48.304;11.902;2023-01-26T08:21:37;-1.10;99.90
8928;DHT22;4499;48.304;11.902;2023-01-26T08:24:06;-1.10;99.90
8928;DHT22;4499;48.304;11.902;2023-01-26T08:26:34;-1.10;99.90
8928;DHT22;4499;48.304;11.902;2023-01-26T08:29:02;-1.00;99.90
8928;DHT22;4499;48.304;11.902;2023-01-26T08:31:30;1.80;99.90
8928;DHT22;4499;48.304;11.902;2023-01-26T08:33:59;1.10;99.90
8928;DHT22;4499;48.304;11.902;2023-01-26T08:36:29;0.40;99.90
8928;DHT22;4499;48.304;11.902;2023-01-26T08:38:57;-0.10;99.90
8928;DHT22;4499;48.304;11.902;2023-01-26T08:41:25;-0.20;99.90
8928;DHT22;4499;48.304;11.902;2023-01-26T08:43:54;-0.40;99.90
8928;DHT22;4499;48.304;11.902;2023-01-26T08:46:25;-0.50;99.90
8928;DHT22;4499;48.304;11.902;2023-01-26T08:48:53;-0.60;99.90
8928;DHT22;4499;48.304;11.902;2023-01-26T08:51:25;-0.70;99.90
8928;DHT22;4499;48.304;11.902;2023-01-26T08:53:54;-0.70;99.90
8928;DHT22;4499;48.304;11.902;2023-01-26T08:56:22;-0.90;99.90
8928;DHT22;4499;48.304;11.902;2023-01-26T08:58:50;-0.80;99.90
8928;DHT22;4499;48.304;11.902;2023-01-26T09:01:19;-0.80;99.90
8928;DHT22;4499;48.304;11.902;2023-01-26T09:03:47;-0.80;99.90
8928;DHT22;4499;48.304;11.902;2023-01-26T09:06:17;-0.90;99.90
8928;DHT22;4499;48.304;11.902;2023-01-26T09:08:45;-0.90;99.90
8928;DHT22;4499;48.304;11.902;2023-01-26T09:11:15;-0.90;99.90
8928;DHT22;4499;48.304;11.902;2023-01-26T09:13:43;-0.90;99.90
8928;DHT22;4499;48.304;11.902;2023-01-26T09:16:14;-0.90;99.90
8928;DHT22;4499;48.304;11.902;2023-01-26T09:18:44;-0.80;99.90
8928;DHT22;4499;48.304;11.902;2023-01-26T09:21:12;-0.90;99.90
8928;DHT22;4499;48.304;11.902;2023-01-26T09:23:43;-0.90;99.90
8928;DHT22;4499;48.304;11.902;2023-01-26T09:26:11;-0.90;99.90
8928;DHT22;4499;48.304;11.902;2023-01-26T09:28:41;-1.00;99.90
8928;DHT22;4499;48.304;11.902;2023-01-26T09:31:10;-1.00;99.90
8928;DHT22;4499;48.304;11.902;2023-01-26T09:33:38;-1.00;99.90
8928;DHT22;4499;48.304;11.902;2023-01-26T09:36:10;-1.00;99.90
8928;DHT22;4499;48.304;11.902;2023-01-26T09:38:38;-0.90;99.90
8928;DHT22;4499;48.304;11.902;2023-01-26T09:41:18;-1.00;99.90
8928;DHT22;4499;48.304;11.902;2023-01-26T09:43:51;-0.90;99.90
8928;DHT22;4499;48.304;11.902;2023-01-26T09:46:24;-1.00;99.90
8928;DHT22;4499;48.304;11.902;2023-01-26T09:49:00;-1.00;99.90
8928;DHT22;4499;48.304;11.902;2023-01-26T09:51:32;-0.90;99.90
8928;DHT22;4499;48.304;11.902;2023-01-26T09:54:05;-1.00;99.90
8928;DHT22;4499;48.304;11.902;2023-01-26T09:56:37;-0.90;99.90
8928;DHT22;4499;48.304;11.902;2023-01-26T09:59:16;-0.90;99.90
8928;DHT22;4499;48.304;11.902;2023-01-26T10:01:51;-0.80;99.90
8928;DHT22;4499;48.304;11.902;2023-01-26T10:04:26;-0.90;99.90
8928;DHT22;4499;48.304;11.902;2023-01-26T10:07:02;-0.80;99.90
8928;DHT22;4499;48.304;11.902;2023-01-26T10:09:33;-0.90;99.90
8928;DHT22;4499;48.304;11.902;2023-01-26T10:12:05;-0.80;99.90
8928;DHT22;4499;48.304;11.902;2023-01-26T10:14:37;-0.80;99.90
8928;DHT22;4499;48.304;11.902;2023-01-26T10:17:14;-0.90;99.90
8928;DHT22;4499;48.304;11.902;2023-01-26T10:19:44;-0.80;99.90
8928;DHT22;4499;48.304;11.902;2023-01-26T10:22:19;-0.90;99.90
8928;DHT22;4499;48.304;11.902;2023-01-26T10:24:54;-0.90;99.90
8928;DHT22;4499;48.304;11.902;2023-01-26T10:27:25;-0.80;99.90
8928;DHT22;4499;48.304;11.902;2023-01-26T10:29:55;-0.80;99.90
8928;DHT22;4499;48.304;11.902;2023-01-26T10:32:24;-0.80;99.90
8928;DHT22;4499;48.304;11.902;2023-01-26T10:34:53;-0.80;99.90
8928;DHT22;4499;48.304;11.902;2023-01-26T10:37:23;-0.80;99.90
8928;DHT22;4499;48.304;11.902;2023-01-26T10:39:58;-0.90;99.90
8928;DHT22;4499;48.304;11.902;2023-01-26T10:42:28;-0.90;99.90
8928;DHT22;4499;48.304;11.902;2023-01-26T10:44:59;-1.00;99.90
8928;DHT22;4499;48.304;11.902;2023-01-26T10:47:28;-0.90;99.90
8928;DHT22;4499;48.304;11.902;2023-01-26T10:50:21;-1.00;99.90
8928;DHT22;4499;48.304;11.902;2023-01-26T10:53:00;-0.90;99.90
8928;DHT22;4499;48.304;11.902;2023-01-26T10:55:30;-0.90;99.90
8928;DHT22;4499;48.304;11.902;2023-01-26T10:57:59;-0.90;99.90
8928;DHT22;4499;48.304;11.902;2023-01-26T11:00:31;-0.80;99.90
8928;DHT22;4499;48.304;11.902;2023-01-26T11:03:07;-0.80;99.90
8928;DHT22;4499;48.304;11.902;2023-01-26T11:05:42;-0.70;99.90
8928;DHT22;4499;48.304;11.902;2023-01-26T11:08:31;-0.80;99.90
8928;DHT22;4499;48.304;11.902;2023-01-26T11:11:02;-0.70;99.90
8928;DHT22;4499;48.304;11.902;2023-01-26T11:13:30;-0.70;99.90
8928;DHT22;4499;48.304;11.902;2023-01-26T11:16:09;-0.70;99.90
8928;DHT22;4499;48.304;11.902;2023-01-26T11:18:43;-0.60;99.90
8928;DHT22;4499;48.304;11.902;2023-01-26T11:21:16;-0.60;99.90
8928;DHT22;4499;48.304;11.902;2023-01-26T11:23:51;-0.60;99.90
8928;DHT22;4499;48.304;11.902;2023-01-26T11:29:45;-0.70;99.90
8928;DHT22;4499;48.304;11.902;2023-01-26T11:32:22;-0.70;99.90
8928;DHT22;4499;48.304;11.902;2023-01-26T11:35:08;-0.80;99.90
8928;DHT22;4499;48.304;11.902;2023-01-26T11:37:42;-0.70;99.90
8928;DHT22;4499;48.304;11.902;2023-01-26T11:40:22;-0.70;99.90
8928;DHT22;4499;48.304;11.902;2023-01-26T11:43:04;-0.70;99.90
8928;DHT22;4499;48.304;11.902;2023-01-26T11:45:41;-0.70;99.90
8928;DHT22;4499;48.304;11.902;2023-01-26T11:48:21;-0.70;99.90
8928;DHT22;4499;48.304;11.902;2023-01-26T11:50:55;-0.80;99.90
8928;DHT22;4499;48.304;11.902;2023-01-26T11:53:53;-0.80;99.90
8928;DHT22;4499;48.304;11.902;2023-01-26T11:56:30;-0.80;99.90
8928;DHT22;4499;48.304;11.902;2023-01-26T11:59:05;-0.70;99.90
8928;DHT22;4499;48.304;11.902;2023-01-26T12:01:39;-0.80;99.90
8928;DHT22;4499;48.304;11.902;2023-01-26T12:04:16;-0.70;99.90
8928;DHT22;4499;48.304;11.902;2023-01-26T12:06:46;-0.70;99.90
8928;DHT22;4499;48.304;11.902;2023-01-26T12:09:20;-0.80;99.90
8928;DHT22;4499;48.304;11.902;2023-01-26T12:11:56;-0.70;99.90
8928;DHT22;4499;48.304;11.902;2023-01-26T12:14:28;-0.70;99.90
8928;DHT22;4499;48.304;11.902;2023-01-26T12:19:57;-0.60;99.90
8928;DHT22;4499;48.304;11.902;2023-01-26T12:22:32;-0.70;99.90
8928;DHT22;4499;48.304;11.902;2023-01-26T12:25:14;-0.60;99.90
8928;DHT22;4499;48.304;11.902;2023-01-26T12:27:51;-0.80;99.90
8928;DHT22;4499;48.304;11.902;2023-01-26T12:30:29;-0.80;99.90
8928;DHT22;4499;48.304;11.902;2023-01-26T12:32:58;-0.80;99.90
8928;DHT22;4499;48.304;11.902;2023-01-26T12:35:43;-0.80;99.90
8928;DHT22;4499;48.304;11.902;2023-01-26T12:38:18;-0.90;99.90
8928;DHT22;4499;48.304;11.902;2023-01-26T12:40:57;-0.80;99.90
8928;DHT22;4499;48.304;11.902;2023-01-26T12:43:39;-0.90;99.90
8928;DHT22;4499;48.304;11.902;2023-01-26T12:46:13;-0.70;99.90
8928;DHT22;4499;48.304;11.902;2023-01-26T12:48:45;0.40;99.90
8928;DHT22;4499;48.304;11.902;2023-01-26T12:51:20;0.10;99.90
8928;DHT22;4499;48.304;11.902;2023-01-26T12:53:55;-0.10;99.90
8928;DHT22;4499;48.304;11.902;2023-01-26T12:56:29;-0.50;99.90
8928;DHT22;4499;48.304;11.902;2023-01-26T12:59:02;-0.40;99.90
8928;DHT22;4499;48.304;11.902;2023-01-26T13:01:38;-0.50;99.90
8928;DHT22;4499;48.304;11.902;2023-01-26T13:04:09;-0.50;99.90
8928;DHT22;4499;48.304;11.902;2023-01-26T13:06:40;-0.50;99.90
8928;DHT22;4499;48.304;11.902;2023-01-26T13:09:20;-0.50;99.90
8928;DHT22;4499;48.304;11.902;2023-01-26T13:11:51;-0.70;99.90
8928;DHT22;4499;48.304;11.902;2023-01-26T13:14:32;-0.80;99.90
8928;DHT22;4499;48.304;11.902;2023-01-26T13:17:45;-0.80;99.90
8928;DHT22;4499;48.304;11.902;2023-01-26T13:26:44;-1.00;99.90
8928;DHT22;4499;48.304;11.902;2023-01-26T13:29:32;-0.90;99.90
8928;DHT22;4499;48.304;11.902;2023-01-26T13:35:25;-0.80;99.90
8928;DHT22;4499;48.304;11.902;2023-01-26T13:37:59;-0.80;99.90
8928;DHT22;4499;48.304;11.902;2023-01-26T13:40:31;-0.80;99.90
8928;DHT22;4499;48.304;11.902;2023-01-26T13:43:06;-0.70;99.90
8928;DHT22;4499;48.304;11.902;2023-01-26T13:46:11;-0.70;99.90
8928;DHT22;4499;48.304;11.902;2023-01-26T13:48:43;-0.80;99.90
8928;DHT22;4499;48.304;11.902;2023-01-26T13:51:17;-0.80;99.90
8928;DHT22;4499;48.304;11.902;2023-01-26T13:53:55;-0.90;99.90
8928;DHT22;4499;48.304;11.902;2023-01-26T13:56:28;-0.90;99.90
8928;DHT22;4499;48.304;11.902;2023-01-26T13:59:18;-0.90;99.90
8928;DHT22;4499;48.304;11.902;2023-01-26T14:01:50;-0.90;99.90
8928;DHT22;4499;48.304;11.902;2023-01-26T14:04:20;-1.00;99.90
8928;DHT22;4499;48.304;11.902;2023-01-26T14:06:51;-0.90;99.90
8928;DHT22;4499;48.304;11.902;2023-01-26T14:09:22;-0.90;99.90
8928;DHT22;4499;48.304;11.902;2023-01-26T14:11:58;-0.80;99.90
8928;DHT22;4499;48.304;11.902;2023-01-26T14:14:31;-0.70;99.90
8928;DHT22;4499;48.304;11.902;2023-01-26T14:17:00;-0.70;99.90
8928;DHT22;4499;48.304;11.902;2023-01-26T14:19:39;-0.70;99.90
8928;DHT22;4499;48.304;11.902;2023-01-26T14:22:10;-0.90;99.90
8928;DHT22;4499;48.304;11.902;2023-01-26T14:24:46;-0.90;99.90
8928;DHT22;4499;48.304;11.902;2023-01-26T14:27:34;-0.80;99.90
8928;DHT22;4499;48.304;11.902;2023-01-26T14:30:20;-0.90;99.90
8928;DHT22;4499;48.304;11.902;2023-01-26T14:32:55;-0.80;99.90
8928;DHT22;4499;48.304;11.902;2023-01-26T14:35:25;-0.90;99.90
8928;DHT22;4499;48.304;11.902;2023-01-26T14:38:04;-0.80;99.90
8928;DHT22;4499;48.304;11.902;2023-01-26T14:40:32;-0.80;99.90
8928;DHT22;4499;48.304;11.902;2023-01-26T14:43:01;-0.80;99.90
8928;DHT22;4499;48.304;11.902;2023-01-26T14:45:31;-0.80;99.90
8928;DHT22;4499;48.304;11.902;2023-01-26T14:48:02;-0.70;99.90
8928;DHT22;4499;48.304;11.902;2023-01-26T14:50:32;-0.90;99.90
8928;DHT22;4499;48.304;11.902;2023-01-26T14:53:01;-0.90;99.90
8928;DHT22;4499;48.304;11.902;2023-01-26T14:55:33;-0.90;99.90
8928;DHT22;4499;48.304;11.902;2023-01-26T14:58:10;-0.90;99.90
8928;DHT22;4499;48.304;11.902;2023-01-26T15:00:41;-0.90;99.90
8928;DHT22;4499;48.304;11.902;2023-01-26T15:03:22;-1.00;99.90
8928;DHT22;4499;48.304;11.902;2023-01-26T15:06:14;-0.90;99.90
8928;DHT22;4499;48.304;11.902;2023-01-26T15:08:59;-0.90;99.90
8928;DHT22;4499;48.304;11.902;2023-01-26T15:11:33;-0.90;99.90
8928;DHT22;4499;48.304;11.902;2023-01-26T15:14:33;-0.90;99.90
8928;DHT22;4499;48.304;11.902;2023-01-26T15:17:04;-0.90;99.90
8928;DHT22;4499;48.304;11.902;2023-01-26T15:19:39;-0.90;99.90
8928;DHT22;4499;48.304;11.902;2023-01-26T15:22:18;-0.90;99.90
8928;DHT22;4499;48.304;11.902;2023-01-26T15:24:59;-0.90;99.90
8928;DHT22;4499;48.304;11.902;2023-01-26T15:27:32;-0.90;99.90
8928;DHT22;4499;48.304;11.902;2023-01-26T15:30:05;-0.90;99.90
8928;DHT22;4499;48.304;11.902;2023-01-26T15:32:38;-0.90;99.90
8928;DHT22;4499;48.304;11.902;2023-01-26T15:35:20;-0.90;99.90
8928;DHT22;4499;48.304;11.902;2023-01-26T15:37:58;-0.90;99.90
8928;DHT22;4499;48.304;11.902;2023-01-26T15:40:27;-0.90;99.90
8928;DHT22;4499;48.304;11.902;2023-01-26T15:43:10;-1.00;99.90
8928;DHT22;4499;48.304;11.902;2023-01-26T15:45:46;-0.90;99.90
8928;DHT22;4499;48.304;11.902;2023-01-26T15:48:16;-0.90;99.90
8928;DHT22;4499;48.304;11.902;2023-01-26T15:50:45;-0.90;99.90
8928;DHT22;4499;48.304;11.902;2023-01-26T15:53:15;-1.00;99.90
8928;DHT22;4499;48.304;11.902;2023-01-26T15:55:46;-1.00;99.90
8928;DHT22;4499;48.304;11.902;2023-01-26T15:58:18;-1.00;99.90
8928;DHT22;4499;48.304;11.902;2023-01-26T16:00:46;-1.00;99.90
8928;DHT22;4499;48.304;11.902;2023-01-26T16:03:17;-1.10;99.90
8928;DHT22;4499;48.304;11.902;2023-01-26T16:05:46;-1.00;99.90
8928;DHT22;4499;48.304;11.902;2023-01-26T16:08:15;-1.10;99.90
8928;DHT22;4499;48.304;11.902;2023-01-26T16:10:43;-1.00;99.90
8928;DHT22;4499;48.304;11.902;2023-01-26T16:13:13;-1.00;99.90
8928;DHT22;4499;48.304;11.902;2023-01-26T16:15:45;-1.10;99.90
8928;DHT22;4499;48.304;11.902;2023-01-26T16:18:13;-1.10;99.90
8928;DHT22;4499;48.304;11.902;2023-01-26T16:20:45;-1.10;99.90
8928;DHT22;4499;48.304;11.902;2023-01-26T16:23:17;-1.10;99.90
8928;DHT22;4499;48.304;11.902;2023-01-26T16:25:46;-1.10;99.90
8928;DHT22;4499;48.304;11.902;2023-01-26T16:28:16;-1.10;99.90
8928;DHT22;4499;48.304;11.902;2023-01-26T16:30:45;-1.10;99.90
8928;DHT22;4499;48.304;11.902;2023-01-26T16:33:16;-1.00;99.90
8928;DHT22;4499;48.304;11.902;2023-01-26T16:35:48;-1.00;99.90
8928;DHT22;4499;48.304;11.902;2023-01-26T16:38:20;-1.00;99.90